Trovoada Desde: 21-05-2018 10:00 Até: 17:59 Aviso por: Trovoada Nivel: Amarelo info button
 

Nearby METAR Reports

 

LEZL - Sevilla, Spain
Distance from station: ENE 8km
Actualizado: 21/05/2018 01:30
Céu limpo
Céu limpo
 Vento de S
Vento: S 7 km/h
Temperatura: 17°C
Ponto de Orvalho: 15°C
Humidade: 88%
Barómetro: 1012 hPa
Resumo: Céu limpo
Visibility: greater than 10 km
2018/05/20 23:30 LEZL 202330Z 19004KT CAVOK 17/15 Q1012 NOSIG
LEMO - Morón, Spain
Distance from station: SE 43km
Actualizado: 21/05/2018 01:00
Céu limpo
Céu limpo
 Vento de calm
Vento: Calmo
Temperatura: 14°C
Ponto de Orvalho: 14°C
Humidade: 100%
Barómetro: 1013 hPa
Resumo: Céu limpo
Visibility: greater than 10 km
2018/05/20 23:00 LEMO 202300Z 00000KT CAVOK 14/14 Q1013 NOSIG
LEJR - Jeréz, Spain
Distance from station: S 71km
Actualizado: 21/05/2018 01:30
Céu limpo
Céu limpo
 Vento de varies
Vento: varies 2 km/h
Temperatura: 16°C
Ponto de Orvalho: 14°C
Humidade: 88%
Barómetro: 1013 hPa
Resumo: Céu limpo
Visibility: greater than 10 km
2018/05/20 23:30 LEJR 202330Z AUTO VRB01KT CAVOK 16/14 Q1013
 
LERT - Rota, Spain
Distance from station: SSW 89km
Actualizado: 21/05/2018 01:00
Céu limpo
Céu limpo
 Vento de NNW
Vento: NNW 2 km/h
Temperatura: 18°C
Ponto de Orvalho: 14°C
Humidade: 78%
Barómetro: 1013 hPa
Resumo: Céu limpo
Visibility: greater than 10 km
2018/05/20 23:00 LERT 202300Z 34001KT CAVOK 18/14 Q1013 NOSIG
LEMG - Málaga, Spain
Distance from station: ESE 157km
Actualizado: 21/05/2018 01:00
Few Clouds
Few Clouds
 Vento de WNW
Vento: WNW 4 km/h
Temperatura: 16°C
Ponto de Orvalho: 13°C
Humidade: 83%
Barómetro: 1013 hPa
Clouds: Few Clouds
Visibility: 10 km
Cloud details: Few Clouds 2286 m
2018/05/20 23:00 LEMG 202300Z 29002KT 9999 FEW075 16/13 Q1013 NOSIG
LEBA - Córdoba, Spain
Distance from station: ENE 115km
Actualizado: 21/05/2018 01:00
Céu limpo
Céu limpo
 Vento de varies
Vento: varies 2 km/h
Temperatura: 15°C
Ponto de Orvalho: 13°C
Humidade: 88%
Barómetro: 1013 hPa
Resumo: Céu limpo
Visibility: greater than 10 km
2018/05/20 23:00 LEBA 202300Z AUTO VRB01KT CAVOK 15/13 Q1013
 
LEGR - Granada, Spain
Distance from station: E 198km
Actualizado: 21/05/2018 01:00
Mist
Mist
 Vento de varies
Vento: varies 2 km/h
Temperatura: 12°C
Ponto de Orvalho: 10°C
Humidade: 88%
Barómetro: 1014 hPa
Resumo: Mist
Visibility: 2 km
2018/05/20 23:00 LEGR 202300Z AUTO VRB01KT 1900 BR ////// 12/10 Q1014
LEAM - Almería, Spain
Distance from station: E 326km
Actualizado: 21/05/2018 01:00
Céu limpo
Céu limpo
 Vento de varies
Vento: varies 4 km/h
Temperatura: 18°C
Ponto de Orvalho: 12°C
Humidade: 68%
Barómetro: 1013 hPa
Clouds: Céu limpo
Visibility: 10 km
2018/05/20 23:00 LEAM 202300Z AUTO VRB02KT 9999 NCD 18/12 Q1013
LEMD - Madrid/Barajas, Spain
Distance from station: NNE 402km
Actualizado: 21/05/2018 01:00
Céu limpo
Céu limpo
 Vento de NNW
Vento: NNW 6 km/h
Temperatura: 16°C
Ponto de Orvalho: 10°C
Humidade: 68%
Barómetro: 1013 hPa
Resumo: Céu limpo
Visibility: greater than 10 km
2018/05/20 23:00 LEMD 202300Z 34003KT 300V020 CAVOK 16/10 Q1013 NOSIG
 
LEVD - Valladolid, Spain
Distance from station: N 492km
Actualizado: 20/05/2018 21:30
NOT Current
Céu limpo
Céu limpo
 Vento de S
Vento: S 15 km/h
Temperatura: 18°C
Ponto de Orvalho: 7°C
Humidade: 49%
Barómetro: 1012 hPa
Resumo: Céu limpo
Visibility: greater than 10 km
2018/05/20 19:30 LEVD 201930Z 19008KT CAVOK 18/07 Q1012
LEBL - Barcelona, Spain
Distance from station: NE 816km
Actualizado: 21/05/2018 01:00
Céu limpo
Céu limpo
 Vento de ENE
Vento: ENE 6 km/h
Temperatura: 17°C
Ponto de Orvalho: 15°C
Humidade: 88%
Barómetro: 1013 hPa
Resumo: Céu limpo
Visibility: greater than 10 km
2018/05/20 23:00 LEBL 202300Z 06003KT CAVOK 17/15 Q1013 NOSIG
LEVC - Valencia, Spain
Distance from station: ENE 535km
Actualizado: 21/05/2018 01:00
Few Clouds
Few Clouds
 Vento de WNW
Vento: WNW 6 km/h
Temperatura: 18°C
Ponto de Orvalho: 14°C
Humidade: 78%
Barómetro: 1013 hPa
Clouds: Few Clouds
Visibility: 10 km
Cloud details: Few Clouds 549 m
2018/05/20 23:00 LEVC 202300Z 29003KT 9999 FEW018 18/14 Q1013 NOSIG